»·PEaware :: WAT847 KONT-KSAN

WAT847 :: KONT-KSAN

FLIGHT INFORMATION

Flight Status: Arrived
Operator:
Walker Air Transport
More flights by this operator :: More flights under this callsign
Pilot: Charlton B. (28558)
Aircraft: EMBRAER EMB-170/175
(E170)
More flights by this aircraft type
Origin: KONT Ontario Intl
United States
Destination: KSAN San Diego Intl-Lindbergh
United States
More flights between these airports :: More routes between these airports
Route: NIKKL1 PDZ V186 HAILE V66 MZB
File this flight plan on PilotEdge
Remarks:
Altitude:
(Current/Filed)
11,000ft
Speed:
(Current/Filed)
361kts
Departed: 09-Feb-22 05:23 PM
Arrived: 09-Feb-22 05:49 PM
Distance/Time
Traveled:
82nm/0:26
Distance/Time
To Go:
Arrived

Flight Plot

Page will automatically refresh every two minutes.

Flight plan parsing failed; only flown route is shown


Map Options




Map Legend


Flown Route
Filed Route
Departure Airport
Arrival Airport
Navaid (VOR, NDB)
Fix

Horizontal Profiles

Position Reports

Time Latitude Longitude Heading Altitude Ground
Speed
09-Feb-22 16:50 34.059757 -117.587207 0 940ft 0kts
09-Feb-22 16:51 34.059757 -117.587207 0 940ft 0kts
09-Feb-22 16:52 34.059757 -117.587207 0 940ft 0kts
09-Feb-22 16:53 34.059757 -117.587207 0 940ft 0kts
09-Feb-22 16:54 34.059757 -117.587207 0 940ft 0kts
09-Feb-22 16:55 34.059757 -117.587207 0 940ft 0kts
09-Feb-22 16:56 34.059757 -117.587207 0 940ft 0kts
09-Feb-22 16:57 34.059757 -117.587207 0 940ft 0kts
09-Feb-22 16:58 34.059757 -117.587207 0 940ft 0kts
09-Feb-22 16:59 34.059757 -117.587207 0 940ft 0kts
09-Feb-22 17:00 34.059757 -117.587207 0 940ft 0kts
09-Feb-22 17:01 34.059757 -117.587207 0 940ft 0kts
09-Feb-22 17:02 34.059757 -117.587207 0 940ft 0kts
09-Feb-22 17:03 34.059757 -117.587207 0 940ft 0kts
09-Feb-22 17:04 34.059757 -117.587207 0 940ft 0kts
09-Feb-22 17:05 34.059757 -117.587207 0 940ft 0kts
09-Feb-22 17:06 34.059757 -117.587207 0 940ft 0kts
09-Feb-22 17:07 34.059757 -117.587207 0 940ft 0kts
09-Feb-22 17:08 34.059757 -117.587207 0 940ft 0kts
09-Feb-22 17:09 34.059757 -117.587207 0 940ft 0kts
09-Feb-22 17:10 34.059397 -117.587146 206 940ft 6kts
09-Feb-22 17:11 34.059057 -117.588274 264 937ft 0kts
09-Feb-22 17:12 34.058020 -117.591285 270 933ft 15kts
09-Feb-22 17:13 34.057998 -117.596542 270 933ft 15kts
09-Feb-22 17:14 34.057999 -117.601672 269 933ft 15kts
09-Feb-22 17:15 34.058003 -117.605955 271 938ft 11kts
09-Feb-22 17:16 34.058026 -117.609425 271 942ft 9kts
09-Feb-22 17:17 34.058067 -117.612879 269 946ft 11kts
09-Feb-22 17:18 34.058064 -117.616919 269 947ft 12kts
09-Feb-22 17:19 34.057993 -117.620971 270 949ft 13kts
09-Feb-22 17:20 34.057893 -117.622595 207 949ft 0kts
09-Feb-22 17:21 34.056901 -117.622140 94 946ft 0kts
09-Feb-22 17:22 34.055743 -117.588912 91 1718ft 165kts
09-Feb-22 17:23 34.016387 -117.546106 172 3678ft 281kts
09-Feb-22 17:24 33.943107 -117.534568 168 3991ft 261kts
09-Feb-22 17:25 33.879265 -117.495292 141 6169ft 274kts
09-Feb-22 17:26 33.816209 -117.439010 115 8972ft 271kts
09-Feb-22 17:27 33.754925 -117.387672 150 9009ft 281kts
09-Feb-22 17:28 33.690423 -117.336950 142 10322ft 281kts
09-Feb-22 17:29 33.619179 -117.278483 143 10977ft 342kts
09-Feb-22 17:30 33.540369 -117.213660 142 10968ft 345kts
09-Feb-22 17:31 33.456668 -117.160083 166 10965ft 350kts
09-Feb-22 17:32 33.361629 -117.137511 167 10948ft 340kts
09-Feb-22 17:33 33.276904 -117.118810 167 10892ft 301kts
09-Feb-22 17:34 33.200238 -117.081897 151 10748ft 301kts
09-Feb-22 17:35 33.125995 -117.038810 151 9870ft 295kts
09-Feb-22 17:36 33.052971 -116.996786 151 8978ft 288kts
09-Feb-22 17:37 32.981888 -116.956238 151 8088ft 280kts
09-Feb-22 17:38 32.909031 -116.925615 167 7199ft 282kts
09-Feb-22 17:39 32.835933 -116.910436 169 6229ft 250kts
09-Feb-22 17:40 32.768422 -116.896346 171 5313ft 243kts
09-Feb-22 17:41 32.704421 -116.883998 189 4931ft 211kts
09-Feb-22 17:42 32.677529 -116.950842 280 4012ft 271kts
09-Feb-22 17:43 32.691634 -117.017005 287 2998ft 166kts
09-Feb-22 17:44 32.703847 -117.067731 287 2072ft 160kts
09-Feb-22 17:45 32.714745 -117.112883 288 1258ft 125kts
09-Feb-22 17:46 32.724115 -117.151201 289 1031ft 118kts
09-Feb-22 17:47 32.732601 -117.185525 285 18ft 50kts
09-Feb-22 17:48 32.734386 -117.194459 250 19ft 6kts
09-Feb-22 17:49 32.734317 -117.194667 247 19ft 0kts
09-Feb-22 17:50 32.733304 -117.196025 200 17ft 0kts
09-Feb-22 17:51 32.733305 -117.196025 200 17ft 0kts

Navigation Log

Ident Type
Flight plan parsing failed, navigation log unavailable